Time;durP1;ratioP1;P1;durP2;ratioP2;P2;SDS_P1;SDS_P2;PMS_P1;PMS_P2;Temp;Humidity;BMP_temperature;BMP_pressure;BME280_temperature;BME280_humidity;BME280_pressure;Samples;Min_cycle;Max_cycle;Signal;HPM_P1;HPM_P2
2024/02/19 00:02:17;;;;;;;46.92;25.67;;;;;;;5.87;100.00;101344.75;5092269;28;20051;-47
2024/02/19 00:04:45;;;;;;;47.00;27.77;;;;;;;5.69;100.00;101340.78;5092392;28;20048;-47
2024/02/19 00:07:17;;;;;;;46.60;27.27;;;;;;;5.61;100.00;101332.13;5092146;28;20147;-45
2024/02/19 00:09:46;;;;;;;46.10;27.33;;;;;;;5.44;100.00;101328.97;5092519;28;20044;-46
2024/02/19 00:12:15;;;;;;;46.20;27.80;;;;;;;5.56;100.00;101334.00;5092096;28;20051;-44
2024/02/19 00:14:44;;;;;;;48.28;28.88;;;;;;;5.63;100.00;101330.31;5092079;28;20477;-44
2024/02/19 00:17:13;;;;;;;45.67;27.98;;;;;;;5.62;100.00;101327.69;5091963;28;20514;-46
2024/02/19 00:19:42;;;;;;;43.80;26.33;;;;;;;5.74;100.00;101327.41;5091794;28;20044;-45
2024/02/19 00:22:10;;;;;;;45.75;26.25;;;;;;;5.69;100.00;101324.88;5091831;28;20380;-46
2024/02/19 00:24:39;;;;;;;45.60;26.33;;;;;;;5.68;100.00;101320.47;5091836;28;20560;-45
2024/02/19 00:27:08;;;;;;;45.53;27.02;;;;;;;5.78;100.00;101325.56;5092126;28;20044;-46
2024/02/19 00:29:36;;;;;;;44.10;26.27;;;;;;;5.83;100.00;101321.91;5091954;28;20048;-46
2024/02/19 00:32:06;;;;;;;45.20;27.33;;;;;;;5.81;100.00;101322.84;5091706;28;20097;-48
2024/02/19 00:34:37;;;;;;;44.85;26.55;;;;;;;5.63;100.00;101314.44;5091982;28;20044;-45
2024/02/19 00:37:06;;;;;;;43.38;26.52;;;;;;;5.72;100.00;101308.91;5092050;28;20043;-45
2024/02/19 00:39:34;;;;;;;43.40;25.55;;;;;;;5.75;100.00;101306.19;5091903;28;20083;-45
2024/02/19 00:42:03;;;;;;;41.08;25.73;;;;;;;5.83;100.00;101313.09;5091759;28;20044;-46
2024/02/19 00:44:31;;;;;;;45.00;26.52;;;;;;;5.63;100.00;101301.19;5091484;28;20067;-47
2024/02/19 00:47:00;;;;;;;49.00;27.25;;;;;;;5.68;100.00;101304.59;5091303;28;20058;-46
2024/02/19 00:49:30;;;;;;;46.60;26.27;;;;;;;5.64;100.00;101295.00;5091355;28;20051;-44
2024/02/19 00:51:58;;;;;;;41.13;26.00;;;;;;;5.64;100.00;101300.28;5091311;28;20121;-47
2024/02/19 00:54:26;;;;;;;42.03;25.38;;;;;;;5.77;100.00;101289.41;5091225;28;20056;-44
2024/02/19 00:56:55;;;;;;;40.97;24.95;;;;;;;5.78;100.00;101291.13;5091171;28;20044;-46
2024/02/19 00:59:23;;;;;;;44.72;24.98;;;;;;;5.94;100.00;101289.91;5091530;28;20052;-46
2024/02/19 01:01:51;;;;;;;42.85;24.40;;;;;;;5.75;100.00;101287.66;5091069;28;20043;-46
2024/02/19 01:04:20;;;;;;;42.85;25.10;;;;;;;5.86;100.00;101281.22;5091284;28;20043;-46
2024/02/19 01:06:50;;;;;;;42.25;23.75;;;;;;;5.75;100.00;101281.50;5091331;28;20485;-48
2024/02/19 01:09:18;;;;;;;42.55;24.48;;;;;;;5.81;100.00;101280.50;5091478;28;20055;-46
2024/02/19 01:11:46;;;;;;;40.45;24.55;;;;;;;5.75;100.00;101277.06;5090679;28;20481;-45
2024/02/19 01:14:15;;;;;;;43.90;25.05;;;;;;;5.62;100.00;101277.41;5090620;28;20165;-46
2024/02/19 01:16:43;;;;;;;40.38;24.20;;;;;;;5.62;100.00;101266.81;5091194;28;20047;-45
2024/02/19 01:19:11;;;;;;;40.55;24.45;;;;;;;5.61;100.00;101268.59;5091075;28;20055;-46
2024/02/19 01:21:39;;;;;;;41.58;24.45;;;;;;;5.56;100.00;101264.31;5090727;28;20055;-47
2024/02/19 01:24:09;;;;;;;42.67;25.83;;;;;;;5.47;100.00;101262.75;5090194;28;20058;-45
2024/02/19 01:26:37;;;;;;;46.03;25.65;;;;;;;5.36;100.00;101260.34;5090601;28;20076;-46
2024/02/19 01:29:05;;;;;;;44.92;26.52;;;;;;;5.36;100.00;101264.78;5090887;28;20043;-45
2024/02/19 01:31:33;;;;;;;44.95;25.50;;;;;;;5.20;100.00;101272.16;5090171;28;20048;-47
2024/02/19 01:34:03;;;;;;;42.20;25.50;;;;;;;5.12;100.00;101269.72;5090855;28;20074;-46
2024/02/19 01:36:36;;;;;;;44.92;25.77;;;;;;;5.12;100.00;101264.41;5090433;28;20154;-44
2024/02/19 01:39:04;;;;;;;45.90;26.92;;;;;;;5.20;100.00;101266.00;5090819;28;20082;-46
2024/02/19 01:41:34;;;;;;;45.85;27.02;;;;;;;5.25;100.00;101265.00;5090801;28;20088;-45
2024/02/19 01:44:04;;;;;;;49.45;28.02;;;;;;;5.11;100.00;101261.78;5090955;28;20047;-45
2024/02/19 01:46:33;;;;;;;50.40;29.23;;;;;;;5.05;100.00;101262.81;5090910;28;20048;-45
2024/02/19 01:49:02;;;;;;;53.50;30.40;;;;;;;5.24;100.00;101259.75;5090746;28;20522;-45
2024/02/19 01:51:32;;;;;;;54.80;29.92;;;;;;;5.17;100.00;101257.25;5090722;28;20056;-44
2024/02/19 01:54:00;;;;;;;50.28;29.92;;;;;;;4.93;100.00;101254.28;5090429;28;20052;-47
2024/02/19 01:56:29;;;;;;;54.67;30.13;;;;;;;4.88;100.00;101265.78;5090524;28;20052;-49
2024/02/19 01:59:00;;;;;;;53.63;29.60;;;;;;;4.92;100.00;101253.38;5090265;28;20070;-47
2024/02/19 02:01:29;;;;;;;53.55;29.60;;;;;;;5.01;100.00;101253.16;5090366;28;20044;-46
2024/02/19 02:03:58;;;;;;;49.35;29.15;;;;;;;4.93;100.00;101244.56;5090165;28;20052;-45
2024/02/19 02:06:27;;;;;;;46.70;28.90;;;;;;;5.02;100.00;101238.19;5090422;28;20113;-46
2024/02/19 02:08:56;;;;;;;48.47;29.20;;;;;;;5.12;100.00;101243.25;5090402;28;20082;-46
2024/02/19 02:11:24;;;;;;;45.75;28.17;;;;;;;5.16;100.00;101239.63;5090028;28;20137;-46
2024/02/19 02:13:52;;;;;;;48.53;27.50;;;;;;;5.14;100.00;101230.00;5090250;28;20058;-45
2024/02/19 02:16:26;;;;;;;48.30;28.08;;;;;;;5.20;100.00;101226.31;5090061;28;20048;-45
2024/02/19 02:18:54;;;;;;;44.30;26.30;;;;;;;5.26;100.00;101223.56;5090300;28;20050;-46
2024/02/19 02:21:23;;;;;;;51.55;26.77;;;;;;;5.34;100.00;101217.19;5090183;28;20094;-46
2024/02/19 02:23:52;;;;;;;47.10;27.35;;;;;;;5.21;100.00;101214.84;5090308;28;20185;-46
2024/02/19 02:26:20;;;;;;;45.22;25.77;;;;;;;5.06;100.00;101221.34;5089544;28;20044;-46
2024/02/19 02:28:50;;;;;;;43.78;25.92;;;;;;;5.05;100.00;101224.91;5090090;28;20085;-46
2024/02/19 02:31:19;;;;;;;44.15;25.90;;;;;;;5.15;100.00;101216.75;5089751;28;20203;-46
2024/02/19 02:33:47;;;;;;;47.58;26.25;;;;;;;5.05;100.00;101209.91;5089782;28;20104;-46
2024/02/19 02:36:16;;;;;;;46.53;27.27;;;;;;;5.12;100.00;101206.25;5090825;28;20043;-45
2024/02/19 02:38:44;;;;;;;45.30;25.83;;;;;;;5.23;100.00;101216.56;5093728;28;20045;-46
2024/02/19 02:41:14;;;;;;;41.53;25.17;;;;;;;5.19;100.00;101217.53;5093680;28;20390;-46
2024/02/19 02:43:43;;;;;;;40.10;24.08;;;;;;;5.23;100.00;101218.34;5093717;28;20052;-47
2024/02/19 02:46:12;;;;;;;38.30;23.63;;;;;;;5.23;100.00;101221.00;5093949;28;20044;-46
2024/02/19 02:48:41;;;;;;;43.08;24.17;;;;;;;5.24;100.00;101225.38;5093873;28;20048;-45
2024/02/19 02:51:09;;;;;;;41.88;24.88;;;;;;;5.04;100.00;101215.25;5093550;28;20093;-46
2024/02/19 02:53:38;;;;;;;45.33;26.75;;;;;;;4.88;100.00;101212.03;5093636;28;20062;-46
2024/02/19 02:56:06;;;;;;;43.67;24.85;;;;;;;4.86;100.00;101214.72;5093309;28;20055;-46
2024/02/19 02:58:35;;;;;;;45.55;25.75;;;;;;;4.73;100.00;101212.34;5093597;28;20050;-45
2024/02/19 03:01:03;;;;;;;41.00;25.77;;;;;;;4.90;100.00;101220.81;5093609;28;20063;-46
2024/02/19 03:03:36;;;;;;;43.42;25.92;;;;;;;4.84;100.00;101216.53;5093393;28;20470;-44
2024/02/19 03:06:05;;;;;;;39.55;23.80;;;;;;;4.94;100.00;101200.47;5093328;28;20089;-45
2024/02/19 03:08:33;;;;;;;36.92;23.50;;;;;;;5.03;100.00;101205.56;5093504;28;20097;-45
2024/02/19 03:11:03;;;;;;;42.90;25.25;;;;;;;4.98;100.00;101210.94;5093260;28;20060;-46
2024/02/19 03:13:31;;;;;;;39.65;24.55;;;;;;;5.01;100.00;101204.72;5093970;28;20052;-48
2024/02/19 03:16:01;;;;;;;42.33;23.77;;;;;;;4.99;100.00;101201.22;5093542;28;20044;-46
2024/02/19 03:18:29;;;;;;;43.15;24.73;;;;;;;4.89;100.00;101208.50;5093337;28;20520;-45
2024/02/19 03:20:59;;;;;;;42.53;25.77;;;;;;;5.05;100.00;101209.03;5093360;28;20131;-45
2024/02/19 03:23:28;;;;;;;42.28;24.70;;;;;;;5.20;100.00;101213.09;5093546;28;20130;-45
2024/02/19 03:25:56;;;;;;;44.10;25.33;;;;;;;5.09;100.00;101200.13;5093045;28;20520;-46
2024/02/19 03:28:24;;;;;;;43.35;24.45;;;;;;;5.03;100.00;101201.16;5092656;28;20087;-46
2024/02/19 03:30:53;;;;;;;42.90;24.27;;;;;;;5.11;100.00;101196.53;5093062;28;20044;-46
2024/02/19 03:33:22;;;;;;;39.47;23.95;;;;;;;5.08;100.00;101190.44;5093042;28;20071;-44
2024/02/19 03:35:51;;;;;;;40.13;23.55;;;;;;;5.15;100.00;101184.13;5092916;28;20044;-45
2024/02/19 03:38:24;;;;;;;39.45;23.77;;;;;;;5.05;100.00;101186.13;5092518;28;20052;-46
2024/02/19 03:40:52;;;;;;;41.38;22.98;;;;;;;4.92;100.00;101181.13;5093021;28;20127;-46
2024/02/19 03:43:20;;;;;;;40.08;23.60;;;;;;;5.07;100.00;101180.78;5092581;28;20048;-45
2024/02/19 03:45:50;;;;;;;37.10;23.08;;;;;;;5.18;100.00;101182.28;5092530;28;20087;-46
2024/02/19 03:48:18;;;;;;;37.75;22.48;;;;;;;5.16;100.00;101192.03;5092250;28;20127;-45
2024/02/19 03:50:47;;;;;;;41.30;23.73;;;;;;;5.10;100.00;101186.88;5092613;28;20043;-45
2024/02/19 03:53:15;;;;;;;38.00;21.83;;;;;;;4.92;100.00;101181.97;5092546;28;20047;-47
2024/02/19 03:55:45;;;;;;;39.78;22.83;;;;;;;4.81;100.00;101171.66;5092922;28;20575;-46
2024/02/19 03:58:13;;;;;;;37.00;21.90;;;;;;;4.83;100.00;101172.50;5092712;28;20417;-44
2024/02/19 04:00:41;;;;;;;37.15;22.52;;;;;;;4.93;100.00;101165.25;5092495;28;20050;-45
2024/02/19 04:03:10;;;;;;;40.85;24.67;;;;;;;5.05;100.00;101164.97;5092147;28;20040;-45
2024/02/19 04:05:39;;;;;;;39.30;23.10;;;;;;;5.11;100.00;101159.50;5092327;28;20433;-45
2024/02/19 04:08:07;;;;;;;36.53;21.77;;;;;;;5.15;100.00;101157.69;5092365;28;20128;-46
2024/02/19 04:10:37;;;;;;;34.28;21.50;;;;;;;5.14;100.00;101148.88;5092605;28;20078;-46
2024/02/19 04:13:06;;;;;;;36.63;22.17;;;;;;;4.94;100.00;101143.19;5092162;28;20091;-45
2024/02/19 04:15:35;;;;;;;35.92;22.20;;;;;;;4.97;100.00;101148.41;5092136;28;20123;-46
2024/02/19 04:18:04;;;;;;;36.90;21.77;;;;;;;4.94;100.00;101143.19;5091754;28;20094;-45
2024/02/19 04:20:32;;;;;;;38.05;22.25;;;;;;;5.06;100.00;101152.59;5092189;28;20467;-46
2024/02/19 04:23:01;;;;;;;38.65;23.30;;;;;;;5.07;100.00;101149.06;5091756;28;20051;-45
2024/02/19 04:25:29;;;;;;;37.08;22.15;;;;;;;5.12;100.00;101148.06;5092243;28;20139;-47
2024/02/19 04:27:58;;;;;;;38.17;21.42;;;;;;;5.08;100.00;101142.84;5092174;28;20078;-46
2024/02/19 04:30:28;;;;;;;33.95;21.15;;;;;;;5.09;100.00;101145.47;5091899;28;20105;-49
2024/02/19 04:32:56;;;;;;;36.97;20.23;;;;;;;5.11;100.00;101151.56;5091795;28;20048;-47
2024/02/19 04:35:25;;;;;;;33.50;19.30;;;;;;;5.14;100.00;101148.00;5091819;28;20462;-47
2024/02/19 04:37:53;;;;;;;32.45;18.88;;;;;;;5.08;100.00;101150.78;5091791;28;20055;-46
2024/02/19 04:40:21;;;;;;;32.45;18.67;;;;;;;5.08;100.00;101146.38;5091975;28;20047;-47
2024/02/19 04:42:50;;;;;;;32.40;19.00;;;;;;;5.12;100.00;101157.75;5091474;28;20094;-46
2024/02/19 04:45:18;;;;;;;30.08;17.90;;;;;;;5.13;100.00;101163.00;5092038;28;20048;-45
2024/02/19 04:47:48;;;;;;;32.85;18.23;;;;;;;5.11;100.00;101167.44;5092111;28;20472;-46
2024/02/19 04:50:16;;;;;;;29.85;17.13;;;;;;;5.11;100.00;101169.22;5092032;28;20070;-46
2024/02/19 04:52:45;;;;;;;35.13;20.73;;;;;;;5.00;100.00;101165.97;5091273;28;20052;-46
2024/02/19 04:55:13;;;;;;;32.78;19.90;;;;;;;5.04;100.00;101171.16;5091414;28;20083;-46
2024/02/19 04:57:42;;;;;;;34.50;21.77;;;;;;;4.94;100.00;101166.97;5091462;28;20051;-45
2024/02/19 05:00:11;;;;;;;35.35;21.05;;;;;;;5.00;100.00;101161.53;5090636;28;20066;-48
2024/02/19 05:02:40;;;;;;;35.70;21.35;;;;;;;5.10;100.00;101168.34;5091252;28;20044;-46
2024/02/19 05:05:10;;;;;;;39.60;22.35;;;;;;;5.17;100.00;101159.38;5091359;28;20140;-49
2024/02/19 05:07:38;;;;;;;37.22;21.00;;;;;;;5.27;100.00;101156.50;5091401;28;20048;-46
2024/02/19 05:10:08;;;;;;;34.40;21.10;;;;;;;5.15;100.00;101153.25;5090971;28;20044;-48
2024/02/19 05:12:37;;;;;;;33.70;20.20;;;;;;;4.88;100.00;101141.53;5090953;28;20056;-45
2024/02/19 05:15:06;;;;;;;34.35;19.90;;;;;;;4.97;100.00;101144.88;5091167;28;20508;-47
2024/02/19 05:17:35;;;;;;;34.47;18.17;;;;;;;5.06;100.00;101147.31;5091434;28;20125;-47
2024/02/19 05:20:05;;;;;;;33.78;18.08;;;;;;;5.15;100.00;101139.16;5091413;28;20123;-45
2024/02/19 05:22:37;;;;;;;29.80;17.40;;;;;;;5.11;100.00;101146.28;5091223;28;20473;-47
2024/02/19 05:25:06;;;;;;;30.63;18.25;;;;;;;5.21;100.00;101131.09;5090713;28;20113;-46
2024/02/19 05:27:34;;;;;;;33.10;19.08;;;;;;;5.28;100.00;101134.44;5091069;28;20048;-46
2024/02/19 05:30:03;;;;;;;31.17;17.00;;;;;;;5.28;100.00;101135.31;5091128;28;20087;-46
2024/02/19 05:32:31;;;;;;;30.42;17.38;;;;;;;5.25;100.00;101143.34;5090479;28;20553;-47
2024/02/19 05:35:02;;;;;;;30.08;17.52;;;;;;;5.34;100.00;101134.31;5090793;28;20549;-46
2024/02/19 05:37:32;;;;;;;31.33;17.10;;;;;;;5.38;100.00;101143.88;5090812;28;20044;-46
2024/02/19 05:40:01;;;;;;;29.27;17.13;;;;;;;5.23;100.00;101139.00;5090791;28;20040;-46
2024/02/19 05:42:30;;;;;;;28.52;17.98;;;;;;;5.29;100.00;101136.19;5089975;28;20064;-46
2024/02/19 05:44:59;;;;;;;30.80;17.23;;;;;;;5.33;100.00;101143.16;5090813;28;20058;-48
2024/02/19 05:47:29;;;;;;;28.73;16.73;;;;;;;5.36;100.00;101140.41;5090698;28;20055;-47
2024/02/19 05:49:57;;;;;;;28.30;16.48;;;;;;;5.03;100.00;101129.75;5090589;28;20044;-46
2024/02/19 05:52:25;;;;;;;30.77;16.80;;;;;;;4.85;100.00;101117.81;5090624;28;20101;-46
2024/02/19 05:54:54;;;;;;;29.88;16.77;;;;;;;4.89;100.00;101119.47;5090308;28;20627;-47
2024/02/19 05:57:24;;;;;;;28.88;16.83;;;;;;;4.96;100.00;101122.88;5090844;28;20048;-45
2024/02/19 05:59:53;;;;;;;33.53;18.17;;;;;;;4.90;100.00;101109.78;5090358;28;20143;-46
2024/02/19 06:02:25;;;;;;;31.60;17.40;;;;;;;5.07;100.00;101123.47;5090045;28;20040;-44
2024/02/19 06:04:54;;;;;;;28.27;17.33;;;;;;;5.27;100.00;101124.78;5090326;28;20044;-44
2024/02/19 06:07:24;;;;;;;28.67;17.50;;;;;;;5.37;100.00;101123.63;5090956;28;20044;-46
2024/02/19 06:09:52;;;;;;;30.95;17.38;;;;;;;5.33;100.00;101125.50;5090524;28;20493;-48
2024/02/19 06:12:20;;;;;;;32.22;17.88;;;;;;;5.29;100.00;101125.59;5094600;28;20044;-47
2024/02/19 06:14:50;;;;;;;30.80;16.70;;;;;;;5.09;100.00;101126.94;5097919;28;20135;-45
2024/02/19 06:17:19;;;;;;;27.65;16.42;;;;;;;4.97;100.00;101129.88;5094217;28;20157;-45
2024/02/19 06:19:47;;;;;;;29.30;16.90;;;;;;;5.09;100.00;101121.66;5094508;28;20044;-47
2024/02/19 06:22:16;;;;;;;27.63;16.55;;;;;;;5.30;100.00;101119.41;5094312;28;20097;-48
2024/02/19 06:24:46;;;;;;;29.40;16.73;;;;;;;5.21;100.00;101117.88;5094404;28;20048;-48
2024/02/19 06:27:15;;;;;;;31.75;17.80;;;;;;;5.21;100.00;101125.81;5094561;28;20048;-48
2024/02/19 06:29:44;;;;;;;27.80;16.55;;;;;;;5.39;100.00;101119.16;5094479;28;20054;-46
2024/02/19 06:32:13;;;;;;;29.17;16.85;;;;;;;5.39;100.00;101124.47;5094300;28;20052;-45
2024/02/19 06:34:42;;;;;;;30.08;17.17;;;;;;;5.31;100.00;101131.75;5094587;28;20084;-46
2024/02/19 06:37:12;;;;;;;31.67;16.70;;;;;;;5.23;100.00;101123.13;5094128;28;20054;-46
2024/02/19 06:39:41;;;;;;;26.88;15.57;;;;;;;5.25;100.00;101123.94;5094479;28;20048;-47
2024/02/19 06:42:09;;;;;;;29.73;17.17;;;;;;;5.22;100.00;101121.38;5093779;28;20086;-46
2024/02/19 06:44:37;;;;;;;29.35;16.73;;;;;;;5.18;100.00;101126.72;5093836;28;20047;-48
2024/02/19 06:47:06;;;;;;;28.23;16.27;;;;;;;5.37;100.00;101126.28;5094033;28;20051;-46
2024/02/19 06:49:36;;;;;;;29.13;17.08;;;;;;;5.49;100.00;101120.66;5092793;28;20043;-49
2024/02/19 06:52:04;;;;;;;34.60;17.85;;;;;;;5.62;100.00;101121.25;5093980;28;20040;-46
2024/02/19 06:54:33;;;;;;;33.15;17.85;;;;;;;5.49;100.00;101122.44;5093865;28;20083;-47
2024/02/19 06:57:04;;;;;;;29.20;16.98;;;;;;;5.47;100.00;101106.63;5094257;28;20044;-48
2024/02/19 06:59:32;;;;;;;31.40;17.13;;;;;;;5.50;100.00;101110.94;5094166;28;20051;-46
2024/02/19 07:02:01;;;;;;;29.23;17.17;;;;;;;5.63;100.00;101107.97;5093544;28;20073;-49
2024/02/19 07:04:39;;;;;;;30.02;17.15;;;;;;;5.71;100.00;101106.00;5093816;28;20131;-50
2024/02/19 07:07:09;;;;;;;28.25;16.38;;;;;;;5.74;100.00;101097.97;5093183;28;20081;-46
2024/02/19 07:09:38;;;;;;;29.77;15.45;;;;;;;5.80;100.00;101101.38;5093571;28;20629;-45
2024/02/19 07:12:07;;;;;;;30.10;16.17;;;;;;;5.87;100.00;101100.25;5093514;28;20101;-45
2024/02/19 07:14:35;;;;;;;27.33;15.70;;;;;;;5.93;100.00;101106.31;5093745;28;20083;-45
2024/02/19 07:17:04;;;;;;;27.15;15.48;;;;;;;5.93;100.00;101108.09;5093507;28;20116;-45
2024/02/19 07:19:32;;;;;;;27.80;15.68;;;;;;;5.97;100.00;101112.38;5093210;28;20090;-44
2024/02/19 07:22:02;;;;;;;27.10;15.80;;;;;;;6.11;100.00;101107.56;5091950;28;20123;-45
2024/02/19 07:24:32;;;;;;;26.10;15.85;;;;;;;6.03;100.00;101098.97;5092665;28;20231;-46
2024/02/19 07:27:01;;;;;;;27.55;15.98;;;;;;;5.89;100.00;101109.94;5093043;28;20062;-45
2024/02/19 07:29:29;;;;;;;27.52;16.35;;;;;;;6.00;100.00;101107.03;5092912;28;20147;-46
2024/02/19 07:31:58;;;;;;;26.35;14.85;;;;;;;6.00;100.00;101104.38;5092601;28;20577;-47
2024/02/19 07:34:26;;;;;;;25.52;15.38;;;;;;;6.00;100.00;101107.03;5093058;28;20040;-46
2024/02/19 07:36:55;;;;;;;27.05;15.65;;;;;;;6.03;100.00;101114.88;5092803;28;20521;-44
2024/02/19 07:39:24;;;;;;;27.80;16.83;;;;;;;5.95;100.00;101107.13;5092475;28;20060;-44
2024/02/19 07:41:53;;;;;;;29.50;16.77;;;;;;;6.07;100.00;101105.91;5092684;28;20510;-45
2024/02/19 07:44:21;;;;;;;29.60;16.80;;;;;;;5.78;100.00;101097.88;5092745;28;20054;-45
2024/02/19 07:46:50;;;;;;;29.63;17.10;;;;;;;5.71;100.00;101089.25;5092591;28;20048;-45
2024/02/19 07:49:18;;;;;;;29.45;17.13;;;;;;;5.83;100.00;101093.34;5092709;28;20459;-46
2024/02/19 07:51:47;;;;;;;28.90;16.90;;;;;;;5.86;100.00;101095.88;5092724;28;20048;-45
2024/02/19 07:54:15;;;;;;;28.58;16.58;;;;;;;5.87;100.00;101102.91;5092640;28;20048;-45
2024/02/19 07:56:45;;;;;;;28.40;16.15;;;;;;;6.04;100.00;101100.72;5092732;28;20039;-46
2024/02/19 07:59:13;;;;;;;29.80;16.45;;;;;;;5.89;100.00;101093.19;5092997;28;20089;-47
2024/02/19 08:01:42;;;;;;;26.52;15.43;;;;;;;6.01;100.00;101092.84;5093658;28;20044;-46
2024/02/19 08:04:10;;;;;;;29.50;16.40;;;;;;;6.19;100.00;101095.00;5092833;28;20055;-47
2024/02/19 08:06:39;;;;;;;27.80;16.55;;;;;;;6.30;100.00;101090.25;5092397;28;20052;-47
2024/02/19 08:09:07;;;;;;;28.05;16.15;;;;;;;6.47;100.00;101096.84;5092602;28;20044;-46
2024/02/19 08:11:35;;;;;;;28.08;15.73;;;;;;;6.56;100.00;101102.72;5092297;28;20048;-45
2024/02/19 08:14:05;;;;;;;27.55;16.58;;;;;;;6.62;100.00;101104.31;5092057;28;20090;-45
2024/02/19 08:16:33;;;;;;;28.13;16.77;;;;;;;6.43;100.00;101100.47;5092315;28;20048;-47
2024/02/19 08:19:01;;;;;;;25.65;15.65;;;;;;;6.23;100.00;101099.28;5092304;28;20044;-45
2024/02/19 08:21:30;;;;;;;29.25;16.83;;;;;;;6.18;100.00;101105.63;5091622;28;20086;-48
2024/02/19 08:23:58;;;;;;;30.58;17.15;;;;;;;6.25;100.00;101101.88;5092349;28;20089;-45
2024/02/19 08:26:27;;;;;;;28.00;17.25;;;;;;;6.38;100.00;101105.06;5091945;28;20842;-45
2024/02/19 08:28:55;;;;;;;33.13;16.58;;;;;;;6.41;100.00;101100.53;5092232;28;20044;-45
2024/02/19 08:31:27;;;;;;;29.63;17.38;;;;;;;6.10;100.00;101099.69;5091633;28;20059;-46
2024/02/19 08:33:55;;;;;;;30.95;17.73;;;;;;;6.05;100.00;101105.09;5090677;28;20044;-44
2024/02/19 08:36:24;;;;;;;27.85;17.20;;;;;;;5.92;100.00;101103.72;5091953;28;20051;-44
2024/02/19 08:38:54;;;;;;;29.75;17.50;;;;;;;5.84;100.00;101098.59;5091984;28;20059;-44
2024/02/19 08:41:23;;;;;;;32.78;18.35;;;;;;;5.75;100.00;101102.34;5091442;28;20047;-44
2024/02/19 08:43:51;;;;;;;32.08;18.08;;;;;;;5.92;100.00;101106.34;5091985;28;20044;-46
2024/02/19 08:46:19;;;;;;;35.58;18.98;;;;;;;5.80;100.00;101109.31;5091296;28;20477;-46
2024/02/19 08:48:53;;;;;;;30.35;18.27;;;;;;;5.80;100.00;101104.88;5091885;28;20044;-44
2024/02/19 08:51:22;;;;;;;31.13;18.63;;;;;;;5.97;100.00;101091.19;5091609;28;20039;-46
2024/02/19 08:53:52;;;;;;;30.40;19.08;;;;;;;6.10;100.00;101089.09;5091131;28;20048;-46
2024/02/19 08:56:27;;;;;;;34.92;18.45;;;;;;;6.21;100.00;101089.66;5091466;28;20139;-46
2024/02/19 08:58:55;;;;;;;36.10;19.38;;;;;;;6.18;100.00;101089.75;5091190;28;20127;-46
2024/02/19 09:01:24;;;;;;;32.15;17.92;;;;;;;6.18;100.00;101095.91;5091020;28;20532;-43
2024/02/19 09:03:54;;;;;;;35.47;18.08;;;;;;;6.15;100.00;101093.31;5090999;28;20139;-45
2024/02/19 09:06:22;;;;;;;33.83;19.20;;;;;;;6.16;100.00;101086.25;5091013;28;20413;-43
2024/02/19 09:08:51;;;;;;;39.00;19.75;;;;;;;6.25;100.00;101085.97;5091670;28;20071;-46
2024/02/19 09:11:19;;;;;;;32.75;19.30;;;;;;;6.35;100.00;101091.88;5091066;28;20052;-45
2024/02/19 09:13:49;;;;;;;33.10;19.80;;;;;;;6.51;100.00;101090.53;5091440;28;20044;-46
2024/02/19 09:16:17;;;;;;;33.05;19.45;;;;;;;6.50;100.00;101081.69;5091238;28;20056;-45
2024/02/19 09:18:45;;;;;;;36.70;19.42;;;;;;;6.38;100.00;101089.16;5090975;28;20359;-45
2024/02/19 09:21:15;;;;;;;34.17;19.75;;;;;;;6.46;100.00;101087.13;5090770;28;20070;-45
2024/02/19 09:23:43;;;;;;;34.55;19.73;;;;;;;6.49;100.00;101079.97;5091305;28;20048;-46
2024/02/19 09:26:13;;;;;;;34.03;21.25;;;;;;;6.58;100.00;101076.16;5090887;28;20051;-45
2024/02/19 09:28:43;;;;;;;35.28;20.05;;;;;;;6.65;100.00;101079.47;5090950;28;20090;-45
2024/02/19 09:31:12;;;;;;;34.25;19.95;;;;;;;6.70;100.00;101082.88;5090728;28;20193;-46
2024/02/19 09:33:40;;;;;;;31.48;19.40;;;;;;;6.79;100.00;101074.63;5090605;28;20079;-44
2024/02/19 09:36:12;;;;;;;35.83;20.65;;;;;;;6.76;100.00;101069.44;5090385;28;20087;-48
2024/02/19 09:38:41;;;;;;;33.38;20.75;;;;;;;6.81;100.00;101068.34;5090792;28;20052;-44
2024/02/19 09:41:10;;;;;;;36.58;20.88;;;;;;;6.77;100.00;101069.38;5090623;28;20097;-45
2024/02/19 09:43:38;;;;;;;37.70;19.90;;;;;;;6.77;100.00;101064.06;5090593;28;20412;-45
2024/02/19 09:46:14;;;;;;;37.60;21.02;;;;;;;6.70;100.00;101065.19;5090507;28;20127;-45
2024/02/19 09:48:49;;;;;;;32.28;20.45;;;;;;;6.77;100.00;101064.06;5091611;28;20052;-46
2024/02/19 09:51:19;;;;;;;37.08;20.58;;;;;;;6.71;100.00;101069.56;5089683;28;20481;-47
2024/02/19 09:54:05;;;;;;;35.97;21.60;;;;;;;6.73;100.00;101066.84;5090441;28;20187;-48
2024/02/19 09:56:35;;;;;;;35.60;20.90;;;;;;;6.76;100.00;101065.00;5090535;28;20412;-48
2024/02/19 09:59:05;;;;;;;34.17;20.45;;;;;;;6.77;100.00;101064.06;5090041;28;20040;-47
2024/02/19 10:01:34;;;;;;;32.50;19.88;;;;;;;6.90;100.00;101064.53;5090598;28;20048;-46
2024/02/19 10:04:03;;;;;;;33.72;20.25;;;;;;;6.96;100.00;101060.84;5090328;28;20115;-46
2024/02/19 10:06:36;;;;;;;37.35;21.33;;;;;;;6.92;100.00;101067.16;5090568;28;20451;-46
2024/02/19 10:09:07;;;;;;;50.10;24.92;;;;;;;7.01;100.00;101066.84;5090119;28;20146;-45
2024/02/19 10:11:36;;;;;;;34.63;20.70;;;;;;;7.02;100.00;101060.63;5090477;28;20040;-44
2024/02/19 10:14:05;;;;;;;36.30;21.55;;;;;;;7.06;100.00;101056.97;5090688;28;20123;-45
2024/02/19 10:16:33;;;;;;;34.53;21.58;;;;;;;7.18;100.00;101059.22;5090169;28;20121;-44
2024/02/19 10:19:06;;;;;;;37.33;22.08;;;;;;;7.21;100.00;101056.44;5090305;28;20048;-46
2024/02/19 10:21:35;;;;;;;34.90;22.02;;;;;;;7.32;100.00;101053.41;5090279;28;20450;-45
2024/02/19 10:24:06;;;;;;;38.47;22.10;;;;;;;7.41;100.00;101042.50;5090333;28;20055;-43
2024/02/19 10:26:35;;;;;;;40.88;21.90;;;;;;;7.46;100.00;101035.25;5090199;28;20044;-45
2024/02/19 10:29:03;;;;;;;38.92;21.30;;;;;;;7.49;100.00;101036.94;5090337;28;20080;-45
2024/02/19 10:31:32;;;;;;;35.17;21.65;;;;;;;7.57;100.00;101038.41;5089925;28;20442;-44
2024/02/19 10:34:00;;;;;;;41.03;22.40;;;;;;;7.68;100.00;101043.31;5089770;28;20051;-47
2024/02/19 10:36:30;;;;;;;37.35;23.23;;;;;;;7.71;100.00;101032.59;5089385;28;20050;-47
2024/02/19 10:38:58;;;;;;;35.97;21.55;;;;;;;7.73;100.00;101036.06;5089616;28;20072;-44
2024/02/19 10:41:28;;;;;;;40.83;23.02;;;;;;;7.76;100.00;101030.63;5089468;28;20074;-46
2024/02/19 10:43:57;;;;;;;36.53;22.45;;;;;;;7.73;100.00;101022.78;5089979;28;20059;-47
2024/02/19 10:46:25;;;;;;;53.25;24.42;;;;;;;7.92;100.00;101020.34;5089549;28;20430;-49
2024/02/19 10:48:56;;;;;;;49.30;23.40;;;;;;;8.14;100.00;101020.38;5090105;28;20557;-47
2024/02/19 10:51:25;;;;;;;48.33;23.35;;;;;;;8.26;100.00;101014.59;5090082;28;20052;-45
2024/02/19 10:54:03;;;;;;;45.83;22.90;;;;;;;8.44;100.00;101008.59;5090050;28;20048;-46
2024/02/19 10:56:38;;;;;;;44.58;22.42;;;;;;;8.54;100.00;100999.34;5090346;28;20131;-47
2024/02/19 10:59:08;;;;;;;34.05;20.50;;;;;;;8.51;100.00;101001.25;5094071;28;20079;-47
2024/02/19 11:01:43;;;;;;;36.47;19.52;;;;;;;8.54;100.00;101002.00;5094153;28;20048;-45
2024/02/19 11:04:19;;;;;;;37.55;19.83;;;;;;;8.67;100.00;100990.84;5094235;28;20044;-48
2024/02/19 11:06:50;;;;;;;34.17;20.65;;;;;;;8.78;100.00;100993.94;5094049;28;20048;-46
2024/02/19 11:09:19;;;;;;;35.67;21.48;;;;;;;8.78;100.00;100991.28;5094183;28;20044;-47
2024/02/19 11:11:59;;;;;;;37.72;20.45;;;;;;;8.84;100.00;100980.41;5093553;28;20048;-46
2024/02/19 11:14:30;;;;;;;30.77;19.08;;;;;;;8.81;100.00;100980.53;5093905;28;20048;-46
2024/02/19 11:17:01;;;;;;;32.70;20.40;;;;;;;8.61;100.00;100978.69;5093842;28;20075;-45
2024/02/19 11:19:36;;;;;;;36.60;22.08;;;;;;;8.60;100.00;100972.50;5093680;28;20775;-45